Time;durP1;ratioP1;P1;durP2;ratioP2;P2;SDS_P1;SDS_P2;PMS_P1;PMS_P2;Temp;Humidity;BMP_temperature;BMP_pressure;BME280_temperature;BME280_humidity;BME280_pressure;Samples;Min_cycle;Max_cycle;Signal;HPM_P1;HPM_P2
2021/01/28 00:00:52;;;;;;;23.10;8.55;;;3.60;99.90;;;;;;4817302;29;20387;-92
2021/01/28 00:03:18;;;;;;;23.00;7.82;;;3.60;99.90;;;;;;4805283;29;20050;-90
2021/01/28 00:05:45;;;;;;;22.88;6.22;;;3.50;99.90;;;;;;4818441;29;20119;-90
2021/01/28 00:08:12;;;;;;;19.45;6.88;;;3.50;99.90;;;;;;4813060;29;20118;-89
2021/01/28 00:10:39;;;;;;;37.47;9.35;;;3.50;99.90;;;;;;4791179;29;20047;-91
2021/01/28 00:13:07;;;;;;;26.75;7.95;;;3.50;99.90;;;;;;4803415;29;20153;-90
2021/01/28 00:15:34;;;;;;;34.65;8.30;;;3.40;99.90;;;;;;4803276;29;20069;-89
2021/01/28 00:18:01;;;;;;;36.10;8.20;;;3.50;99.90;;;;;;4802766;29;20054;-91
2021/01/28 00:20:34;;;;;;;22.30;7.70;;;3.30;99.90;;;;;;4802970;29;20047;-92
2021/01/28 00:23:00;;;;;;;26.33;6.93;;;3.30;99.90;;;;;;4786607;29;20047;-91
2021/01/28 00:25:26;;;;;;;22.00;6.80;;;3.30;99.90;;;;;;4804084;29;20051;-89
2021/01/28 00:27:53;;;;;;;21.77;7.60;;;3.30;99.90;;;;;;4803802;29;20045;-90
2021/01/28 00:30:23;;;;;;;19.50;6.18;;;3.30;99.90;;;;;;4801992;29;20100;-94
2021/01/28 00:32:49;;;;;;;26.75;7.05;;;3.20;99.90;;;;;;4801947;29;20782;-95
2021/01/28 00:35:23;;;;;;;16.38;7.63;;;3.20;99.90;;;;;;4803406;29;20055;-94
2021/01/28 00:37:49;;;;;;;22.00;6.72;;;3.20;99.90;;;;;;4802159;29;20043;-96
2021/01/28 00:40:14;;;;;;;21.17;6.40;;;3.20;99.90;;;;;;4796495;29;20103;-93
2021/01/28 00:42:40;;;;;;;19.42;6.43;;;3.30;99.90;;;;;;4808387;29;20598;-95
2021/01/28 00:45:06;;;;;;;29.05;6.88;;;3.30;99.90;;;;;;4812451;29;20558;-91
2021/01/28 00:47:32;;;;;;;25.17;5.85;;;3.30;99.90;;;;;;4792215;29;20049;-89
2021/01/28 00:49:58;;;;;;;16.08;5.35;;;3.40;99.90;;;;;;4806988;29;20051;-91
2021/01/28 00:52:24;;;;;;;29.60;6.15;;;3.30;99.90;;;;;;4806890;29;20126;-91
2021/01/28 00:54:50;;;;;;;23.42;6.43;;;3.40;99.90;;;;;;4808428;29;20055;-90
2021/01/28 00:57:15;;;;;;;25.63;7.82;;;3.30;99.90;;;;;;4795685;29;20042;-92
2021/01/28 00:59:41;;;;;;;27.02;7.32;;;3.30;99.90;;;;;;4805513;29;20115;-89
2021/01/28 01:02:07;;;;;;;26.48;7.40;;;3.30;99.90;;;;;;4806065;29;20053;-92
2021/01/28 01:04:33;;;;;;;22.30;7.25;;;3.30;99.90;;;;;;4786969;29;20074;-90
2021/01/28 01:06:59;;;;;;;17.58;5.93;;;3.30;99.90;;;;;;4803065;29;20123;-92
2021/01/28 01:09:26;;;;;;;33.95;8.05;;;3.40;99.90;;;;;;4803550;29;20796;-93
2021/01/28 01:11:53;;;;;;;32.78;8.00;;;3.30;99.90;;;;;;4786398;29;20047;-93
2021/01/28 01:14:19;;;;;;;33.03;9.30;;;3.20;99.90;;;;;;4803437;29;20477;-93
2021/01/28 01:16:46;;;;;;;30.35;9.80;;;3.20;99.90;;;;;;4802285;29;20063;-87
2021/01/28 01:19:12;;;;;;;21.05;8.50;;;3.20;99.90;;;;;;4767042;29;20130;-90
2021/01/28 01:21:38;;;;;;;28.92;9.68;;;3.20;99.90;;;;;;4786222;29;20065;-91
2021/01/28 01:24:05;;;;;;;27.25;8.75;;;3.20;99.90;;;;;;4801984;29;20517;-91
2021/01/28 01:26:30;;;;;;;30.92;8.77;;;3.20;99.90;;;;;;4802291;29;20042;-91
2021/01/28 01:28:56;;;;;;;22.15;8.57;;;3.20;99.90;;;;;;4771154;29;20077;-87
2021/01/28 01:31:22;;;;;;;22.35;8.07;;;3.30;99.90;;;;;;4798983;29;20063;-90
2021/01/28 01:33:48;;;;;;;30.73;8.25;;;3.30;99.90;;;;;;4776009;29;20049;-86
2021/01/28 01:36:14;;;;;;;27.00;8.25;;;3.30;99.90;;;;;;4795940;29;20457;-90
2021/01/28 01:38:39;;;;;;;20.65;8.15;;;3.30;99.90;;;;;;4802228;29;20043;-91
2021/01/28 01:41:05;;;;;;;29.25;9.18;;;3.30;99.90;;;;;;4801646;29;20055;-87
2021/01/28 01:43:31;;;;;;;25.38;8.85;;;3.30;99.90;;;;;;4771256;29;20505;-89
2021/01/28 01:46:01;;;;;;;35.10;9.13;;;3.30;99.90;;;;;;4785546;29;20058;-89
2021/01/28 01:48:47;;;;;;;29.80;9.40;;;3.30;99.90;;;;;;4793191;29;20082;-90
2021/01/28 01:51:24;;;;;;;34.05;8.20;;;3.30;99.90;;;;;;4782087;29;20050;-91
2021/01/28 01:54:04;;;;;;;25.60;8.80;;;3.30;99.90;;;;;;4787199;29;20047;-86
2021/01/28 01:56:34;;;;;;;23.90;7.95;;;3.30;99.90;;;;;;4781357;29;20043;-91
2021/01/28 01:59:11;;;;;;;28.70;7.15;;;3.30;99.90;;;;;;4790880;29;20123;-92
2021/01/28 02:01:43;;;;;;;17.27;6.47;;;3.30;99.90;;;;;;4799349;29;20139;-92
2021/01/28 02:04:09;;;;;;;18.63;5.53;;;3.20;99.90;;;;;;4803798;29;20050;-90
2021/01/28 02:06:44;;;;;;;22.40;6.55;;;3.20;99.90;;;;;;4797674;29;20409;-92
2021/01/28 02:09:12;;;;;;;29.42;6.15;;;3.10;99.90;;;;;;4804804;29;20627;-91
2021/01/28 02:11:39;;;;;;;17.95;5.40;;;3.00;99.90;;;;;;4805800;29;20050;-89
2021/01/28 02:14:08;;;;;;;17.70;5.53;;;3.00;99.90;;;;;;4805199;29;20153;-90
2021/01/28 02:16:38;;;;;;;15.95;5.78;;;3.00;99.90;;;;;;4790905;29;20490;-92
2021/01/28 02:19:33;;;;;;;17.08;5.90;;;3.10;99.90;;;;;;4805445;29;20074;-92
2021/01/28 02:22:01;;;;;;;12.18;4.78;;;3.00;99.90;;;;;;4778774;29;20391;-93
2021/01/28 02:24:49;;;;;;;14.30;5.22;;;3.00;99.90;;;;;;4804540;29;20051;-93
2021/01/28 02:27:16;;;;;;;12.02;3.92;;;3.00;99.90;;;;;;4803875;29;20055;-92
2021/01/28 02:29:42;;;;;;;15.57;4.85;;;3.00;99.90;;;;;;4804861;29;20062;-91
2021/01/28 02:32:08;;;;;;;14.23;4.63;;;3.00;99.90;;;;;;4805368;29;20058;-93
2021/01/28 02:34:35;;;;;;;18.65;6.80;;;2.90;99.90;;;;;;4804871;29;20051;-92
2021/01/28 02:37:11;;;;;;;18.02;5.50;;;2.90;99.90;;;;;;4803935;29;20050;-90
2021/01/28 02:39:37;;;;;;;17.80;5.07;;;2.80;99.90;;;;;;4804852;29;20050;-93
2021/01/28 02:42:15;;;;;;;13.32;5.50;;;2.80;99.90;;;;;;4788478;29;20051;-91
2021/01/28 02:44:41;;;;;;;24.25;6.45;;;2.80;99.90;;;;;;4805567;29;20047;-92
2021/01/28 02:47:07;;;;;;;19.00;5.72;;;2.80;99.90;;;;;;4804516;29;20125;-90
2021/01/28 02:49:33;;;;;;;16.80;5.45;;;2.70;99.90;;;;;;4804931;29;20558;-91
2021/01/28 02:51:59;;;;;;;13.07;4.47;;;2.70;99.90;;;;;;4804141;29;20168;-91
2021/01/28 02:54:25;;;;;;;25.42;5.13;;;2.70;99.90;;;;;;4803933;29;20134;-91
2021/01/28 02:56:51;;;;;;;16.20;5.05;;;2.60;99.90;;;;;;4804606;29;20046;-91
2021/01/28 02:59:17;;;;;;;13.15;4.63;;;2.50;99.90;;;;;;4804467;29;20061;-89
2021/01/28 03:01:43;;;;;;;21.92;5.20;;;2.50;99.90;;;;;;4803818;29;20054;-91
2021/01/28 03:04:10;;;;;;;20.42;4.50;;;2.50;99.90;;;;;;4802875;29;20127;-88
2021/01/28 03:06:37;;;;;;;16.33;4.95;;;2.40;99.90;;;;;;4804365;29;20047;-91
2021/01/28 03:09:06;;;;;;;15.93;5.00;;;2.40;99.90;;;;;;4803767;29;20050;-91
2021/01/28 03:11:32;;;;;;;21.65;6.32;;;2.40;99.90;;;;;;4804927;29;20414;-91
2021/01/28 03:13:59;;;;;;;31.73;7.35;;;2.30;99.90;;;;;;4803745;29;20062;-87
2021/01/28 03:16:25;;;;;;;17.40;6.15;;;2.40;99.90;;;;;;4802907;29;20181;-91
2021/01/28 03:18:51;;;;;;;97.35;5.85;;;2.30;99.90;;;;;;4818557;29;20061;-90
2021/01/28 03:21:16;;;;;;;81.90;4.97;;;2.30;99.90;;;;;;4817008;29;20204;-91
2021/01/28 03:23:42;;;;;;;51.28;4.85;;;2.20;99.90;;;;;;4804608;29;20100;-91
2021/01/28 03:26:08;;;;;;;13.40;4.47;;;2.10;99.90;;;;;;4787521;29;20462;-89
2021/01/28 03:28:34;;;;;;;11.90;4.30;;;2.00;99.90;;;;;;4804652;29;20066;-90
2021/01/28 03:31:00;;;;;;;17.65;5.05;;;1.90;99.90;;;;;;4803269;29;20054;-89
2021/01/28 03:33:26;;;;;;;15.38;4.50;;;1.90;99.90;;;;;;4818071;29;20508;-90
2021/01/28 03:35:52;;;;;;;12.35;4.22;;;1.90;99.90;;;;;;4787989;29;20055;-89
2021/01/28 03:38:18;;;;;;;26.20;4.82;;;1.90;99.90;;;;;;4802153;29;20184;-90
2021/01/28 03:40:44;;;;;;;12.90;5.13;;;1.90;99.90;;;;;;4803024;29;20047;-90
2021/01/28 03:43:11;;;;;;;20.33;5.18;;;1.90;99.90;;;;;;4802187;29;20545;-89
2021/01/28 03:45:37;;;;;;;25.17;5.93;;;1.90;99.90;;;;;;4804324;29;20053;-92
2021/01/28 03:48:03;;;;;;;24.52;5.55;;;1.80;99.90;;;;;;4803024;29;20057;-92
2021/01/28 03:50:33;;;;;;;23.25;6.25;;;1.80;99.90;;;;;;4802749;29;20074;-90
2021/01/28 03:52:59;;;;;;;18.83;5.70;;;1.80;99.90;;;;;;4803678;29;20047;-86
2021/01/28 03:55:26;;;;;;;22.42;4.78;;;1.80;99.90;;;;;;4803950;29;20129;-88
2021/01/28 03:57:53;;;;;;;26.13;6.38;;;1.80;99.90;;;;;;4803743;29;20058;-92
2021/01/28 04:00:34;;;;;;;30.58;5.72;;;1.80;99.90;;;;;;4803049;29;20073;-91
2021/01/28 04:03:02;;;;;;;30.88;4.60;;;1.80;99.90;;;;;;4802359;29;20047;-86
2021/01/28 04:05:28;;;;;;;163.50;7.97;;;1.70;99.90;;;;;;4802161;29;20074;-91
2021/01/28 04:07:55;;;;;;;31.60;4.72;;;1.60;99.90;;;;;;4803628;29;20065;-89
2021/01/28 04:10:27;;;;;;;24.83;5.05;;;1.60;99.90;;;;;;4801622;29;20791;-88
2021/01/28 04:12:53;;;;;;;19.20;5.15;;;1.50;99.90;;;;;;4803552;29;20452;-89
2021/01/28 04:15:20;;;;;;;36.42;6.18;;;1.40;99.90;;;;;;4802128;29;20137;-90
2021/01/28 04:17:48;;;;;;;284.73;11.13;;;1.50;99.90;;;;;;4787145;29;20046;-88
2021/01/28 04:20:15;;;;;;;31.77;5.53;;;1.50;99.90;;;;;;4802736;29;20047;-91
2021/01/28 04:22:41;;;;;;;16.67;5.30;;;1.50;99.90;;;;;;4794092;29;20055;-89
2021/01/28 04:25:08;;;;;;;11.20;4.55;;;1.50;99.90;;;;;;4786366;29;20055;-88
2021/01/28 04:27:34;;;;;;;18.27;4.78;;;1.40;99.90;;;;;;4787056;29;20200;-87
2021/01/28 04:30:01;;;;;;;124.15;4.82;;;1.40;99.90;;;;;;4802949;29;20521;-85
2021/01/28 04:32:27;;;;;;;153.27;5.18;;;1.40;99.90;;;;;;4793910;29;20050;-88
2021/01/28 04:34:54;;;;;;;58.22;3.72;;;1.30;99.90;;;;;;4800816;29;20078;-89
2021/01/28 04:37:20;;;;;;;24.80;5.72;;;1.40;99.90;;;;;;4786295;29;20055;-89
2021/01/28 04:39:49;;;;;;;14.98;4.60;;;1.40;99.90;;;;;;4802586;29;20062;-87
2021/01/28 04:42:21;;;;;;;36.05;3.97;;;1.40;99.90;;;;;;4799136;29;20549;-86
2021/01/28 04:44:47;;;;;;;165.80;6.13;;;1.30;99.90;;;;;;4786990;29;20570;-88
2021/01/28 04:47:17;;;;;;;120.63;5.25;;;1.30;99.90;;;;;;4800690;29;20047;-91
2021/01/28 04:49:51;;;;;;;58.88;3.05;;;1.20;99.90;;;;;;4789579;29;20406;-90
2021/01/28 04:52:19;;;;;;;93.60;4.85;;;1.30;99.90;;;;;;4802515;29;20130;-91
2021/01/28 04:54:45;;;;;;;72.38;4.10;;;1.20;99.90;;;;;;4786624;29;20073;-90
2021/01/28 04:57:13;;;;;;;27.27;3.35;;;1.30;99.90;;;;;;4802333;29;20051;-90
2021/01/28 04:59:45;;;;;;;32.38;3.20;;;1.30;99.90;;;;;;4796702;29;20424;-90
2021/01/28 05:02:17;;;;;;;46.35;4.10;;;1.30;99.90;;;;;;4795795;29;20103;-90
2021/01/28 05:04:56;;;;;;;66.85;5.07;;;1.20;99.90;;;;;;4802682;29;20084;-88
2021/01/28 05:07:34;;;;;;;42.33;4.50;;;1.30;99.90;;;;;;4801926;29;20272;-90
2021/01/28 05:10:11;;;;;;;115.85;5.43;;;1.20;99.90;;;;;;4802587;29;20051;-89
2021/01/28 05:12:38;;;;;;;142.20;6.00;;;1.20;99.90;;;;;;4785938;29;20039;-90
2021/01/28 05:15:34;;;;;;;86.85;5.35;;;1.30;99.90;;;;;;4802678;29;20482;-85
2021/01/28 05:18:30;;;;;;;14.65;4.13;;;1.40;99.90;;;;;;4784667;29;20051;-90
2021/01/28 05:21:11;;;;;;;142.68;6.32;;;1.40;99.90;;;;;;4802607;29;20541;-90
2021/01/28 05:23:39;;;;;;;76.50;5.90;;;1.40;99.90;;;;;;4793418;29;20051;-85
2021/01/28 05:26:29;;;;;;;91.40;5.68;;;1.50;99.90;;;;;;4782685;29;20087;-85
2021/01/28 05:28:55;;;;;;;113.45;5.13;;;1.50;99.90;;;;;;4802588;29;20561;-89
2021/01/28 05:31:34;;;;;;;32.17;4.60;;;1.50;99.90;;;;;;4783854;29;20538;-90
2021/01/28 05:34:11;;;;;;;116.93;6.55;;;1.50;99.90;;;;;;4793000;29;20130;-89
2021/01/28 05:37:02;;;;;;;75.38;5.43;;;1.50;99.90;;;;;;4801640;29;20049;-89
2021/01/28 05:39:35;;;;;;;187.18;7.35;;;1.60;99.90;;;;;;4776486;29;20061;-89
2021/01/28 05:42:27;;;;;;;70.65;5.93;;;1.60;99.90;;;;;;4802702;29;20126;-90
2021/01/28 05:44:55;;;;;;;106.10;6.20;;;1.60;99.90;;;;;;4768412;29;20472;-90
2021/01/28 05:47:30;;;;;;;51.35;5.22;;;1.60;99.90;;;;;;4801682;29;20053;-90
2021/01/28 05:50:14;;;;;;;29.70;5.85;;;1.70;99.90;;;;;;4802293;29;20054;-90
2021/01/28 05:52:40;;;;;;;37.13;6.78;;;1.70;99.90;;;;;;4802646;29;20051;-91
2021/01/28 05:55:22;;;;;;;34.42;5.43;;;1.70;99.90;;;;;;4795827;29;20053;-87
2021/01/28 05:57:57;;;;;;;51.90;6.00;;;1.70;99.90;;;;;;4797860;29;20074;-90
2021/01/28 06:00:38;;;;;;;42.97;5.60;;;1.70;99.90;;;;;;4801074;29;20042;-89
2021/01/28 06:03:20;;;;;;;55.58;6.03;;;1.70;99.90;;;;;;4796315;29;20050;-89
2021/01/28 06:06:05;;;;;;;60.63;5.13;;;1.70;99.90;;;;;;4802742;29;20054;-90
2021/01/28 06:08:55;;;;;;;9.27;3.83;;;1.70;99.90;;;;;;4795526;29;20059;-90
2021/01/28 06:11:35;;;;;;;40.03;5.18;;;1.70;99.90;;;;;;4782631;29;20755;-90
2021/01/28 06:14:45;;;;;;;13.30;5.13;;;1.80;99.90;;;;;;4802194;29;20076;-90
2021/01/28 06:17:35;;;;;;;13.40;4.95;;;1.80;99.90;;;;;;4792281;29;20062;-85
2021/01/28 06:20:33;;;;;;;18.83;6.35;;;1.80;99.90;;;;;;4802835;29;20043;-93
2021/01/28 06:23:19;;;;;;;20.30;6.28;;;1.80;99.90;;;;;;4789126;29;20120;-91
2021/01/28 06:26:10;;;;;;;15.20;5.55;;;1.90;99.90;;;;;;4786344;29;20059;-92
2021/01/28 06:29:07;;;;;;;14.93;4.75;;;1.90;99.90;;;;;;4801944;29;20109;-93
2021/01/28 06:32:12;;;;;;;19.40;6.32;;;1.90;99.90;;;;;;4785900;29;20490;-91
2021/01/28 06:34:58;;;;;;;23.13;6.50;;;1.90;99.90;;;;;;4801844;29;20046;-90
2021/01/28 06:37:54;;;;;;;22.88;7.32;;;2.00;99.90;;;;;;4785608;29;20046;-91
2021/01/28 06:40:28;;;;;;;20.30;7.18;;;2.00;99.90;;;;;;4804416;29;20066;-89
2021/01/28 06:43:04;;;;;;;31.75;8.45;;;2.00;99.90;;;;;;4806279;29;20347;-96
2021/01/28 06:45:37;;;;;;;26.75;7.97;;;2.10;99.90;;;;;;4807296;29;20043;-88
2021/01/28 06:48:06;;;;;;;32.50;9.30;;;2.10;99.90;;;;;;4805472;29;20050;-92
2021/01/28 06:51:10;;;;;;;22.48;8.18;;;2.10;99.90;;;;;;4804463;29;20054;-95
2021/01/28 06:53:42;;;;;;;36.05;12.18;;;2.20;99.90;;;;;;4759565;29;20090;-92
2021/01/28 06:56:26;;;;;;;34.85;11.98;;;2.20;99.90;;;;;;4806725;29;20051;-94
2021/01/28 06:59:24;;;;;;;51.25;11.70;;;2.20;99.90;;;;;;4801420;29;20067;-93
2021/01/28 07:02:05;;;;;;;39.40;12.63;;;2.30;99.90;;;;;;4810900;29;20129;-91
2021/01/28 07:04:40;;;;;;;37.00;12.18;;;2.30;99.90;;;;;;4812690;29;20241;-92
2021/01/28 07:07:13;;;;;;;30.95;9.65;;;2.30;99.90;;;;;;4816333;29;20062;-92
2021/01/28 07:09:45;;;;;;;19.25;9.30;;;2.40;99.90;;;;;;4796345;29;20486;-93
2021/01/28 07:12:20;;;;;;;30.65;10.63;;;2.40;99.90;;;;;;4804436;29;20568;-88
2021/01/28 07:14:48;;;;;;;24.52;9.82;;;2.30;99.90;;;;;;4804478;29;20042;-91
2021/01/28 07:17:20;;;;;;;31.33;10.00;;;2.50;99.90;;;;;;4804541;29;20100;-86
2021/01/28 07:20:07;;;;;;;29.40;9.32;;;2.40;99.90;;;;;;4804870;29;20142;-95
2021/01/28 07:22:44;;;;;;;23.88;8.07;;;2.40;99.90;;;;;;4803182;29;20035;-92
2021/01/28 07:25:23;;;;;;;21.75;8.68;;;2.50;99.90;;;;;;4787935;29;20080;-92
2021/01/28 07:28:22;;;;;;;24.55;8.82;;;2.50;99.90;;;;;;4803561;29;20073;-96
2021/01/28 07:31:13;;;;;;;28.58;9.52;;;2.50;99.90;;;;;;4804756;29;20047;-95
2021/01/28 07:33:49;;;;;;;27.77;9.18;;;2.50;99.90;;;;;;4796087;29;20042;-94
2021/01/28 07:36:23;;;;;;;23.80;8.68;;;2.50;99.90;;;;;;4795987;29;20104;-85
2021/01/28 07:38:57;;;;;;;15.38;7.57;;;2.50;99.90;;;;;;4819346;29;20130;-93
2021/01/28 07:41:34;;;;;;;18.88;7.72;;;2.60;99.90;;;;;;4796390;29;20053;-93
2021/01/28 07:44:24;;;;;;;20.42;8.10;;;2.50;99.90;;;;;;4803234;29;20400;-90
2021/01/28 07:46:54;;;;;;;;;;;2.60;99.90;;;;;;4782864;29;20154;-90
2021/01/28 07:49:28;;;;;;;16.67;8.00;;;2.70;99.90;;;;;;4800654;29;20368;-93
2021/01/28 07:52:00;;;;;;;18.65;8.38;;;2.60;99.90;;;;;;4789338;29;20044;-90
2021/01/28 07:54:26;;;;;;;21.08;8.82;;;2.60;99.90;;;;;;4802956;29;20042;-91
2021/01/28 07:57:04;;;;;;;19.67;8.88;;;2.60;99.90;;;;;;4814736;29;20065;-93
2021/01/28 07:59:48;;;;;;;20.35;8.50;;;2.60;99.90;;;;;;4811502;29;20104;-91
2021/01/28 08:02:29;;;;;;;19.52;7.65;;;2.70;99.90;;;;;;4804230;29;20168;-93
2021/01/28 08:05:04;;;;;;;16.65;7.55;;;2.60;99.90;;;;;;4809749;29;20078;-94
2021/01/28 08:07:39;;;;;;;19.10;7.18;;;2.70;99.90;;;;;;4803618;29;20469;-91
2021/01/28 08:10:29;;;;;;;15.68;6.90;;;2.70;99.90;;;;;;4804627;29;20062;-91
2021/01/28 08:13:22;;;;;;;12.70;6.45;;;2.60;99.90;;;;;;4797233;29;20043;-92
2021/01/28 08:15:49;;;;;;;20.27;6.63;;;2.70;99.90;;;;;;4796354;29;20095;-95
2021/01/28 08:18:40;;;;;;;24.25;6.90;;;2.60;99.90;;;;;;4818996;29;20160;-94
2021/01/28 08:21:11;;;;;;;24.58;6.43;;;2.60;99.90;;;;;;4811253;29;20058;-96
2021/01/28 08:23:40;;;;;;;15.70;6.68;;;2.70;99.90;;;;;;4913631;23;20116;-87
2021/01/28 08:26:11;;;;;;;18.98;6.05;;;2.70;99.90;;;;;;5078216;23;20065;-93
2021/01/28 08:28:40;;;;;;;21.92;6.07;;;2.60;99.90;;;;;;4868692;29;20397;-95
2021/01/28 08:31:18;;;;;;;11.50;5.13;;;2.70;99.90;;;;;;4862176;29;20048;-89
2021/01/28 08:33:48;;;;;;;16.25;5.82;;;2.70;99.90;;;;;;4833636;29;20046;-92
2021/01/28 08:36:39;;;;;;;10.85;5.13;;;2.70;99.90;;;;;;4858622;29;20416;-94
2021/01/28 08:39:11;;;;;;;14.50;5.10;;;2.60;99.90;;;;;;4823449;29;20468;-94
2021/01/28 08:41:37;;;;;;;10.50;4.72;;;2.70;99.90;;;;;;4857620;29;20041;-96
2021/01/28 08:44:07;;;;;;;5.38;3.90;;;2.70;99.90;;;;;;4860925;29;20041;-93
2021/01/28 08:46:34;;;;;;;10.00;3.08;;;2.70;99.90;;;;;;4858574;29;20136;-94
2021/01/28 08:49:14;;;;;;;6.22;2.80;;;2.70;99.90;;;;;;4843589;29;20469;-95
2021/01/28 08:51:43;;;;;;;15.95;3.67;;;2.70;99.90;;;;;;4853279;29;20131;-96
2021/01/28 08:54:28;;;;;;;10.88;3.40;;;2.70;99.90;;;;;;4863170;29;20136;-94
2021/01/28 08:56:57;;;;;;;6.82;3.03;;;2.80;99.90;;;;;;4841748;29;20057;-93
2021/01/28 08:59:39;;;;;;;12.38;2.83;;;2.80;99.90;;;;;;4857676;29;20124;-87
2021/01/28 09:02:05;;;;;;;10.40;2.55;;;2.70;99.90;;;;;;4854998;29;20128;-95
2021/01/28 09:04:35;;;;;;;5.25;2.50;;;2.80;99.90;;;;;;4839981;29;20103;-93
2021/01/28 09:07:01;;;;;;;7.20;2.67;;;2.80;99.90;;;;;;4856531;29;20046;-95
2021/01/28 09:09:28;;;;;;;6.05;2.20;;;2.80;99.90;;;;;;4857240;29;20113;-94
2021/01/28 09:12:32;;;;;;;6.55;2.20;;;2.90;99.90;;;;;;4856799;29;20424;-90
2021/01/28 09:15:18;;;;;;;7.65;2.33;;;2.80;99.90;;;;;;4853569;29;20457;-92
2021/01/28 09:17:44;;;;;;;8.05;2.47;;;2.80;99.90;;;;;;4855302;29;20636;-92
2021/01/28 09:20:42;;;;;;;8.45;2.00;;;2.90;99.90;;;;;;4851327;29;20412;-95
2021/01/28 09:23:14;;;;;;;7.15;2.58;;;2.90;99.90;;;;;;4809505;29;20501;-95
2021/01/28 09:25:41;;;;;;;4.88;2.35;;;2.90;99.90;;;;;;4856098;29;20504;-93
2021/01/28 09:28:21;;;;;;;6.13;2.00;;;2.90;99.90;;;;;;4848419;29;20041;-90
2021/01/28 09:30:50;;;;;;;4.70;2.05;;;2.90;99.90;;;;;;4853286;29;20108;-90
2021/01/28 09:33:33;;;;;;;2.90;1.98;;;2.90;99.90;;;;;;4840532;29;20052;-91
2021/01/28 09:36:15;;;;;;;3.92;1.73;;;3.00;99.90;;;;;;4857272;29;20097;-89
2021/01/28 09:39:01;;;;;;;3.78;1.77;;;3.00;99.90;;;;;;4842850;29;20049;-91
2021/01/28 09:41:33;;;;;;;3.40;2.08;;;3.00;99.90;;;;;;4855895;29;20461;-85
2021/01/28 09:44:00;;;;;;;5.13;1.88;;;3.10;99.90;;;;;;4840353;29;20412;-90
2021/01/28 09:46:30;;;;;;;5.60;1.90;;;3.10;99.90;;;;;;4855865;29;20160;-84
2021/01/28 09:48:59;;;;;;;2.97;1.50;;;3.10;99.90;;;;;;4855601;29;20045;-90
2021/01/28 09:51:29;;;;;;;7.65;2.20;;;3.00;99.90;;;;;;4856719;29;20046;-85
2021/01/28 09:54:00;;;;;;;7.93;1.80;;;3.00;99.90;;;;;;4856841;29;20511;-92
2021/01/28 09:56:26;;;;;;;5.38;1.92;;;3.00;99.90;;;;;;4856164;29;20077;-85
2021/01/28 09:58:52;;;;;;;5.47;1.70;;;3.00;99.90;;;;;;4855987;29;20049;-89
2021/01/28 10:01:18;;;;;;;5.40;1.30;;;3.00;99.90;;;;;;4855806;29;20102;-89
2021/01/28 10:03:44;;;;;;;5.97;1.77;;;3.00;99.90;;;;;;4853285;29;20080;-91
2021/01/28 10:06:10;;;;;;;2.92;1.75;;;3.00;99.90;;;;;;4840523;29;20077;-90
2021/01/28 10:08:35;;;;;;;3.42;1.55;;;3.00;99.90;;;;;;4853289;29;20073;-88
2021/01/28 10:11:03;;;;;;;5.82;1.80;;;3.00;99.90;;;;;;4856817;29;20045;-89
2021/01/28 10:13:28;;;;;;;2.92;1.50;;;3.00;99.90;;;;;;4824965;29;20049;-84
2021/01/28 10:15:55;;;;;;;7.70;2.00;;;3.00;99.90;;;;;;4860183;29;20132;-89
2021/01/28 10:18:20;;;;;;;6.15;1.83;;;3.00;99.90;;;;;;4838408;29;20120;-87
2021/01/28 10:20:46;;;;;;;3.35;1.45;;;3.00;99.90;;;;;;4854895;29;20077;-87
2021/01/28 10:23:12;;;;;;;3.08;1.30;;;3.00;99.90;;;;;;4824411;29;20113;-88
2021/01/28 10:25:38;;;;;;;5.03;1.40;;;3.00;99.90;;;;;;4855734;29;20074;-84
2021/01/28 10:28:05;;;;;;;4.05;1.35;;;3.00;99.90;;;;;;4853250;29;20066;-89
2021/01/28 10:30:31;;;;;;;7.72;1.08;;;3.00;99.90;;;;;;4855251;29;20061;-84
2021/01/28 10:32:58;;;;;;;2.47;1.45;;;3.00;99.90;;;;;;4854393;29;20105;-89
2021/01/28 10:35:28;;;;;;;2.40;1.13;;;3.00;99.90;;;;;;4838064;29;20061;-88
2021/01/28 10:37:55;;;;;;;2.67;1.00;;;3.00;99.90;;;;;;4839455;29;20045;-87
2021/01/28 10:40:21;;;;;;;5.07;1.40;;;3.00;99.90;;;;;;4853725;29;20049;-88
2021/01/28 10:42:47;;;;;;;1.27;0.90;;;3.00;99.90;;;;;;4855707;29;20045;-87
2021/01/28 10:45:23;;;;;;;2.13;0.85;;;2.90;99.90;;;;;;4840512;29;20420;-89
2021/01/28 10:47:51;;;;;;;2.08;0.93;;;2.90;99.90;;;;;;4857244;29;20157;-89
2021/01/28 10:50:17;;;;;;;2.45;1.08;;;3.00;99.90;;;;;;4855754;29;20069;-90
2021/01/28 10:52:43;;;;;;;3.08;0.90;;;2.90;99.90;;;;;;4857967;29;20076;-87
2021/01/28 10:55:09;;;;;;;1.80;1.00;;;3.00;99.90;;;;;;4858451;29;20093;-89
2021/01/28 10:57:36;;;;;;;11.90;1.30;;;3.00;99.90;;;;;;4858573;29;20042;-88
2021/01/28 11:00:04;;;;;;;3.58;0.90;;;3.00;99.90;;;;;;4857894;29;20540;-85
2021/01/28 11:02:30;;;;;;;2.05;1.15;;;3.00;99.90;;;;;;4855041;29;20378;-83
2021/01/28 11:04:56;;;;;;;1.85;0.90;;;2.90;99.90;;;;;;4858367;29;20056;-88
2021/01/28 11:07:22;;;;;;;1.67;1.30;;;3.00;99.90;;;;;;4827546;29;20457;-87
2021/01/28 11:09:48;;;;;;;2.85;1.30;;;3.00;99.90;;;;;;4857194;29;20049;-90
2021/01/28 11:12:14;;;;;;;2.35;1.13;;;3.00;99.90;;;;;;4850348;29;20141;-87
2021/01/28 11:14:39;;;;;;;3.53;1.58;;;3.00;99.90;;;;;;4842148;29;20049;-87
2021/01/28 11:17:06;;;;;;;4.97;1.40;;;2.90;99.90;;;;;;4848182;29;20080;-86
2021/01/28 11:19:31;;;;;;;3.22;1.65;;;3.00;99.90;;;;;;4840567;29;20389;-84
2021/01/28 11:21:57;;;;;;;4.65;1.80;;;3.10;99.90;;;;;;4854718;29;20045;-88
2021/01/28 11:24:23;;;;;;;2.20;1.58;;;3.10;99.90;;;;;;4857410;29;20054;-87
2021/01/28 11:26:49;;;;;;;1.50;1.35;;;3.10;99.90;;;;;;4859002;29;20060;-88
2021/01/28 11:29:14;;;;;;;3.28;1.65;;;3.10;99.90;;;;;;4841596;29;20157;-87
2021/01/28 11:31:40;;;;;;;3.00;1.63;;;3.10;99.90;;;;;;4856493;29;20045;-89
2021/01/28 11:34:06;;;;;;;5.57;2.10;;;3.20;99.90;;;;;;4856900;29;20444;-88
2021/01/28 11:36:32;;;;;;;2.92;1.70;;;3.20;99.90;;;;;;4856983;29;20121;-88
2021/01/28 11:38:58;;;;;;;2.28;1.58;;;3.20;99.90;;;;;;4858579;29;20065;-88
2021/01/28 11:41:25;;;;;;;1.70;1.60;;;3.20;99.90;;;;;;4858271;29;20050;-89
2021/01/28 11:43:50;;;;;;;4.25;2.30;;;3.20;99.90;;;;;;4842262;29;20106;-88
2021/01/28 11:46:16;;;;;;;4.53;1.92;;;3.20;99.90;;;;;;4857941;29;20416;-89
2021/01/28 11:48:42;;;;;;;4.28;1.80;;;3.20;99.90;;;;;;4857694;29;20049;-89
2021/01/28 11:51:08;;;;;;;2.20;1.90;;;3.20;99.90;;;;;;4841758;29;20049;-90
2021/01/28 11:53:34;;;;;;;2.65;1.92;;;3.20;99.90;;;;;;4857769;29;20049;-86
2021/01/28 11:55:59;;;;;;;4.18;1.48;;;3.10;99.90;;;;;;4857165;29;20046;-88
2021/01/28 11:58:25;;;;;;;2.47;1.85;;;3.20;99.90;;;;;;4838845;29;20168;-93
2021/01/28 12:00:51;;;;;;;2.47;1.55;;;3.10;99.90;;;;;;4844652;29;20048;-87
2021/01/28 12:03:17;;;;;;;2.30;1.95;;;3.10;99.90;;;;;;4846622;29;20389;-86
2021/01/28 12:05:43;;;;;;;3.38;2.13;;;3.20;99.90;;;;;;4844154;29;20418;-88
2021/01/28 12:08:09;;;;;;;2.00;1.80;;;3.20;99.90;;;;;;4845538;29;20048;-89
2021/01/28 12:10:35;;;;;;;5.35;2.30;;;3.20;99.90;;;;;;4845739;29;20046;-88
2021/01/28 12:13:01;;;;;;;3.95;2.03;;;3.20;99.90;;;;;;4850115;29;20051;-88
2021/01/28 12:15:27;;;;;;;2.30;1.85;;;3.20;99.90;;;;;;4854700;29;20045;-90
2021/01/28 12:17:54;;;;;;;4.32;2.05;;;3.30;99.90;;;;;;4835784;29;20053;-87
2021/01/28 12:20:25;;;;;;;4.47;2.25;;;3.30;99.90;;;;;;4850447;29;20045;-89
2021/01/28 12:22:51;;;;;;;2.67;1.70;;;3.20;99.90;;;;;;4840086;29;20057;-88
2021/01/28 12:25:18;;;;;;;3.63;1.70;;;3.30;99.90;;;;;;4855573;29;20952;-88
2021/01/28 12:27:44;;;;;;;4.47;2.22;;;3.30;99.90;;;;;;4857186;29;20045;-88
2021/01/28 12:30:11;;;;;;;2.70;1.90;;;3.50;99.90;;;;;;4857295;29;20075;-88
2021/01/28 12:32:38;;;;;;;4.93;2.10;;;3.40;99.90;;;;;;4851967;29;20811;-86
2021/01/28 12:35:05;;;;;;;3.42;1.70;;;3.40;99.90;;;;;;4856055;29;20419;-89
2021/01/28 12:37:31;;;;;;;4.32;1.80;;;3.40;99.90;;;;;;4838628;29;20116;-88
2021/01/28 12:39:56;;;;;;;2.22;1.98;;;3.50;99.90;;;;;;4856675;29;20136;-88
2021/01/28 12:42:25;;;;;;;3.30;1.52;;;3.40;99.90;;;;;;4855820;29;20056;-88
2021/01/28 12:44:51;;;;;;;3.28;2.10;;;3.50;99.90;;;;;;4855277;29;20544;-88
2021/01/28 12:47:17;;;;;;;2.95;2.25;;;3.60;99.90;;;;;;4853950;29;20412;-89
2021/01/28 12:49:43;;;;;;;3.85;2.20;;;3.60;99.90;;;;;;4854492;29;20519;-84
2021/01/28 12:52:09;;;;;;;2.28;2.08;;;3.60;99.90;;;;;;4839446;29;20053;-88
2021/01/28 12:54:34;;;;;;;2.65;2.13;;;3.70;99.90;;;;;;4854215;29;20046;-88
2021/01/28 12:57:00;;;;;;;2.30;2.20;;;3.70;99.90;;;;;;4853617;29;20116;-94
2021/01/28 12:59:26;;;;;;;2.85;2.22;;;3.80;99.90;;;;;;4840745;29;20049;-87
2021/01/28 13:01:52;;;;;;;2.35;2.15;;;3.90;99.90;;;;;;4837494;29;20047;-90
2021/01/28 13:04:18;;;;;;;2.00;1.90;;;3.90;99.90;;;;;;4852615;29;20049;-93
2021/01/28 13:06:44;;;;;;;4.07;2.10;;;3.90;99.90;;;;;;4839248;29;20229;-87
2021/01/28 13:09:10;;;;;;;3.22;2.17;;;3.90;99.90;;;;;;4855441;29;20049;-86
2021/01/28 13:11:35;;;;;;;3.92;2.38;;;3.90;99.90;;;;;;4850875;29;20082;-88